• Join FlightAware (Why Join?)
  • Login
  • US Flag 
11:30PM EDT


 

Airport Tracker/Info


-or-


 

Live Flight TrackerFlight Track Log ✈ SWA378 ✈ 01-May-2013 ✈ KLAX - KATL

Flight Track Log - Related Links

Times and Time Zones

All times are in EDT time to prevent confusion due to time zone crossing. See the SWA378 flight status page for this flight to view local times or setup timezone preferences in your user account.

Time Position Orientation Groundspeed Altitude Reporting Facility
EDT Latitude Longitude Course Direction KTS MPH feet Rate Location/Type
01:20PM 33.9303 -118.4831 257° West 197 227 2,100  Level Los Angeles Center
01:21PM 33.8789 -118.5347 220° Southwest 251 289 3,700 1,800 Climbing Los Angeles Center
01:22PM 33.8092 -118.5308 177° South 275 316 5,900 2,880 Climbing Los Angeles Center
01:23PM 33.7186 -118.5217 175° South 275 316 9,700 2,700 Climbing Los Angeles Center
01:24PM 33.6731 -118.4400 124° Southeast 317 365 11,600 1,980 Climbing Los Angeles Center
01:25PM 33.6505 -118.3843 121° Southeast  Level FlightAware Approximate
01:25PM 33.6447 -118.3319 107° East 352 405 13,800  Level Los Angeles Center
01:26PM 33.6442 -118.1858 90° East 375 432 17,000 2,640 Climbing Los Angeles Center
01:27PM 33.6444 -118.0583 90° East 384 442 19,300 2,160 Climbing Los Angeles Center
01:28PM 33.6444 -117.9253 90° East 396 456 21,600 2,040 Climbing Los Angeles Center
01:29PM 33.6442 -117.7858 90° East 412 474 23,600 1,740 Climbing Los Angeles Center
01:30PM 33.6436 -117.6403 90° East 432 497 25,300 1,740 Climbing Los Angeles Center
01:31PM 33.6442 -117.4892 90° East 448 516 27,200 1,980 Climbing Los Angeles Center
01:32PM 33.6422 -117.3072 91° East 455 524 29,400 1,920 Climbing Los Angeles Center
01:33PM 33.6417 -117.1544 90° East 458 527 31,200 1,680 Climbing Los Angeles Center
01:34PM 33.6394 -117.0036 91° East 456 525 32,900 1,620 Climbing Los Angeles Center
01:36PM 33.6539 -116.8547 83° East 452 520 34,600 1,680 Climbing Los Angeles Center
01:37PM 33.6822 -116.6867 79° East 443 510 36,400 1,140 Climbing Los Angeles Center
01:38PM 33.7086 -116.5461 77° East 435 501 37,000 240 Climbing Los Angeles Center
01:39PM 33.7336 -116.4047 78° East 432 497 37,000  Level Los Angeles Center
01:40PM 33.7592 -116.2633 78° East 432 497 37,000  Level Los Angeles Center
01:41PM 33.7833 -116.1183 79° East 437 503 37,000  Level Los Angeles Center
01:42PM 33.8078 -115.9761 78° East 436 502 37,000  Level Los Angeles Center
01:43PM 33.8372 -115.8061 78° East 433 498 37,000  Level Los Angeles Center
01:44PM 33.8617 -115.6617 78° East 438 504 37,000  Level Los Angeles Center
01:45PM 33.8867 -115.5172 78° East 441 507 37,000  Level Los Angeles Center
01:46PM 33.9111 -115.3742 78° East 438 504 37,000  Level Los Angeles Center
01:47PM 33.9350 -115.2294 79° East 440 506 37,000  Level Los Angeles Center
01:48PM 33.9594 -115.0847 78° East 441 507 37,000  Level Los Angeles Center
01:49PM 33.9881 -114.9111 79° East 442 509 37,000  Level Los Angeles Center
01:50PM 34.0125 -114.7658 78° East 443 510 37,000  Level Los Angeles Center
01:51PM 34.0369 -114.6197 79° East 445 512 37,000  Level Los Angeles Center
01:52PM 34.0603 -114.4694 79° East 455 524 37,000  Level Los Angeles Center
01:53PM 34.0839 -114.3233 79° East 447 514 37,000  Level Los Angeles Center
01:54PM 34.1072 -114.1744 79° East 449 517 37,000  Level Los Angeles Center
01:55PM 34.1358 -113.9986 79° East 446 513 37,000  Level Los Angeles Center
01:56PM 34.1592 -113.8486 79° East 451 519 37,000  Level Los Angeles Center
01:57PM 34.1883 -113.6817 78° East 450 518 37,000  Level Albuquerque Center
01:58PM 34.2072 -113.5431 81° East 449 517 37,000  Level Albuquerque Center
01:59PM 34.2336 -113.3650 80° East 449 517 37,000  Level Albuquerque Center
02:00PM 34.2564 -113.2153 80° East 452 520 37,000  Level Albuquerque Center
02:02PM 34.2789 -113.0658 80° East 453 521 37,000  Level Albuquerque Center
02:03PM 34.3017 -112.9153 80° East 454 522 37,000  Level Albuquerque Center
02:04PM 34.3242 -112.7639 80° East 457 526 37,000  Level Albuquerque Center
02:05PM 34.3456 -112.6131 80° East 455 524 37,000  Level Albuquerque Center
02:06PM 34.3669 -112.4606 80° East 459 528 37,000  Level Albuquerque Center
02:07PM 34.3931 -112.2778 80° East 458 527 37,000  Level Albuquerque Center
02:08PM 34.4153 -112.1250 80° East 459 528 37,000  Level Albuquerque Center
02:09PM 34.4369 -111.9717 80° East 459 528 37,000  Level Albuquerque Center
02:10PM 34.4589 -111.8164 80° East 463 533 37,000  Level Albuquerque Center
02:11PM 34.4800 -111.6614 81° East 464 534 37,000  Level Albuquerque Center
02:12PM 34.5008 -111.5061 81° East 464 534 37,000  Level Albuquerque Center
02:13PM 34.5219 -111.3508 81° East 465 535 37,000  Level Albuquerque Center
02:14PM 34.5428 -111.1956 81° East 466 536 37,000  Level Albuquerque Center
02:15PM 34.5669 -111.0103 81° East 464 534 37,000  Level Albuquerque Center
02:16PM 34.5883 -110.8528 81° East 469 540 37,000  Level Albuquerque Center
02:17PM 34.6097 -110.6850 81° East 473 544 37,000  Level Albuquerque Center
02:18PM 34.6314 -110.5344 80° East 473 544 37,000  Level Albuquerque Center
02:19PM 34.6525 -110.3592 82° East 471 542 37,000  Level Albuquerque Center
02:20PM 34.6714 -110.2094 81° East 470 541 37,000  Level Albuquerque Center
02:21PM 34.6883 -110.0594 82° East 469 540 37,000  Level Albuquerque Center
02:22PM 34.7108 -109.8836 81° East 472 543 37,000  Level Albuquerque Center
02:23PM 34.7286 -109.7308 82° East 475 547 37,000  Level Albuquerque Center
02:24PM 34.7503 -109.5578 81° East 469 540 37,000  Level Albuquerque Center
02:25PM 34.7683 -109.4075 82° East 470 541 37,000  Level Albuquerque Center
02:26PM 34.7892 -109.2314 82° East 472 543 37,000  Level Albuquerque Center
02:27PM 34.8064 -109.0794 82° East 474 545 37,000  Level Albuquerque Center
02:28PM 34.8275 -108.9006 82° East 478 550 37,000  Level Albuquerque Center
02:29PM 34.8442 -108.7472 82° East 480 552 37,000  Level Albuquerque Center
02:30PM 34.8636 -108.5669 82° East 481 554 37,000  Level Albuquerque Center
02:31PM 34.8806 -108.4136 82° East 480 552 37,000  Level Albuquerque Center
02:32PM 34.9011 -108.2342 82° East 479 551 37,000  Level Albuquerque Center
02:33PM 34.9181 -108.0803 82° East 480 552 37,000  Level Albuquerque Center
02:35PM 34.9342 -107.9256 83° East 481 554 37,000  Level Albuquerque Center
02:36PM 34.9531 -107.7436 83° East 479 551 37,000  Level Albuquerque Center
02:37PM 34.9689 -107.5839 83° East 476 548 37,000  Level Albuquerque Center
02:38PM 34.9844 -107.4239 83° East 475 547 37,000  Level Albuquerque Center
02:39PM 35.0000 -107.2653 83° East 474 545 37,000  Level Albuquerque Center
02:40PM 35.0194 -107.0836 83° East 478 550 37,000  Level Albuquerque Center
02:41PM 35.0339 -106.9275 84° East 485 558 37,000  Level Albuquerque Center
02:42PM 35.0483 -106.7444 84° East 487 560 37,000  Level Albuquerque Center
02:43PM 35.0553 -106.5861 87° East 488 562 37,000  Level Albuquerque Center
02:44PM 35.0656 -106.4239 86° East 498 573 37,000  Level Albuquerque Center
02:45PM 35.0739 -106.2611 86° East 485 558 37,000  Level Albuquerque Center
02:46PM 35.0817 -106.0997 87° East 481 554 37,000  Level Albuquerque Center
02:47PM 35.0914 -105.9044 86° East 481 554 37,000  Level Albuquerque Center
02:48PM 35.0997 -105.7486 86° East 480 552 37,100 480 Climbing Albuquerque Center
02:49PM 35.1075 -105.5822 87° East 485 558 38,000 720 Climbing Albuquerque Center
02:50PM 35.1144 -105.4136 87° East 489 563 38,600 480 Climbing Albuquerque Center
02:51PM 35.1225 -105.2419 87° East 498 573 39,000 180 Climbing Albuquerque Center
02:52PM 35.1303 -105.0489 87° East 488 562 39,000  Level Albuquerque Center
02:53PM 35.1372 -104.8828 87° East 484 557 39,000  Level Albuquerque Center
02:54PM 35.1436 -104.7192 87° East 481 554 39,000  Level Albuquerque Center
02:55PM 35.1506 -104.5464 87° East 484 557 39,000  Level Albuquerque Center
02:56PM 35.1544 -104.3839 88° East 483 556 39,000  Level Albuquerque Center
02:57PM 35.1611 -104.2228 87° East 478 550 39,000  Level Albuquerque Center
02:58PM 35.1664 -104.0617 88° East 476 548 39,000  Level Albuquerque Center
02:59PM 35.1739 -103.8842 87° East 477 549 39,000  Level Albuquerque Center
03:00PM 35.1792 -103.7208 88° East 478 550 39,000  Level Albuquerque Center
03:01PM 35.1839 -103.5567 88° East 480 552 39,000  Level Albuquerque Center
03:02PM 35.1900 -103.3922 87° East 480 552 39,000  Level Albuquerque Center
03:03PM 35.1958 -103.2003 88° East 481 554 39,000  Level Albuquerque Center
03:04PM 35.2019 -103.0350 87° East 482 555 39,000  Level Albuquerque Center
03:05PM 35.2064 -102.8911 88° East 480 552 39,000  Level Albuquerque Center
03:06PM 35.2106 -102.7283 88° East 480 552 39,000  Level Albuquerque Center
03:07PM 35.2153 -102.5342 88° East 478 550 39,000  Level Albuquerque Center
03:09PM 35.2197 -102.3739 88° East 474 545 39,000  Level Albuquerque Center
03:10PM 35.2239 -102.2136 88° East 473 544 39,000  Level Albuquerque Center
03:11PM 35.2272 -102.0539 88° East 472 543 39,000  Level Albuquerque Center
03:12PM 35.2322 -101.8953 88° East 474 545 39,000  Level Albuquerque Center
03:13PM 35.2361 -101.7061 89° East 474 545 39,000  Level Albuquerque Center
03:14PM 35.2406 -101.5508 88° East 473 544 39,000  Level Albuquerque Center
03:15PM 35.2528 -101.3914 85° East 471 542 39,000  Level Albuquerque Center
03:16PM 35.2561 -101.2375 88° East 470 541 39,000  Level Albuquerque Center
03:17PM 35.2625 -101.0803 87° East 467 537 39,000  Level Albuquerque Center
03:18PM 35.2711 -100.8922 87° East 464 534 39,000  Level Albuquerque Center
03:19PM 35.2772 -100.7356 87° East 463 533 39,000  Level Albuquerque Center
03:20PM 35.2831 -100.5689 87° East 465 535 39,000  Level Albuquerque Center
03:21PM 35.2903 -100.4119 87° East 463 533 39,000  Level Albuquerque Center
03:22PM 35.2942 -100.2544 88° East 462 532 39,000  Level Albuquerque Center
03:23PM 35.3008 -100.0986 87° East 460 529 39,000  Level Albuquerque Center
03:24PM 35.3064 -99.9436 87° East 457 526 39,000  Level Albuquerque Center
03:25PM 35.3111 -99.7892 88° East 456 525 39,000  Level Albuquerque Center
03:26PM 35.3158 -99.6339 88° East 456 525 39,000  Level Albuquerque Center
03:27PM 35.3425 -99.4519 80° East 456 525 39,000  Level Albuquerque Center
03:28PM 35.3675 -99.3025 78° East 452 520 39,000  Level Albuquerque Center
03:29PM 35.3897 -99.1553 79° East 450 518 39,000  Level Fort Worth Center
03:30PM 35.4064 -99.0003 82° East 450 518 39,000  Level Fort Worth Center
03:31PM 35.4189 -98.8503 84° East 450 518 39,000  Level Fort Worth Center
03:32PM 35.4247 -98.6975 87° East 444 511 39,000  Level Fort Worth Center
03:33PM 35.4261 -98.5422 89° East 439 505 39,000  Level Fort Worth Center
03:34PM 35.4272 -98.4122 89° East 434 499 39,000  Level Fort Worth Center
03:35PM 35.4283 -98.2569 89° East 439 505 39,000  Level Fort Worth Center
03:36PM 35.4292 -98.1064 90° East 439 505 39,000  Level Fort Worth Center
03:37PM 35.4281 -97.9536 90° East 439 505 39,000  Level Fort Worth Center
03:38PM 35.4286 -97.8008 90° East 439 505 39,000  Level Fort Worth Center
03:39PM 35.4289 -97.6506 90° East 439 505 39,000  Level Fort Worth Center
03:40PM 35.4311 -97.4975 89° East 439 505 39,000  Level Fort Worth Center
03:41PM 35.4311 -97.3422 90° East 451 519 39,000  Level Fort Worth Center
03:42PM 35.4289 -97.1664 91° East 459 528 39,000  Level Fort Worth Center
03:43PM 35.4286 -97.0214 90° East 454 522 39,000  Level Fort Worth Center
03:44PM 35.4281 -96.8708 90° East 442 509 39,000  Level Fort Worth Center
03:45PM 35.4272 -96.7283 90° East 431 496 39,000  Level Fort Worth Center
03:46PM 35.4244 -96.5781 91° East 431 496 39,000  Level Fort Worth Center
03:47PM 35.4233 -96.4278 90° East 431 496 39,000  Level Fort Worth Center
03:48PM 35.4219 -96.2825 91° East 436 502 39,000 -300 Level Fort Worth Center
03:49PM 35.4228 -96.1347 90° East 436 502 38,400 -840 Descending Fort Worth Center
03:50PM 35.4192 -95.9922 92° East 430 495 37,400 -720 Descending Fort Worth Center
03:51PM 35.4197 -95.8647 90° East 413 475 37,000 -180 Descending Fort Worth Center
03:53PM 35.4144 -95.5514 91° East 408 470 37,000  Level Memphis Center
03:54PM 35.4119 -95.4086 91° East 408 470 37,000  Level Memphis Center
03:55PM 35.4094 -95.2633 91° East 418 481 37,000  Level Memphis Center
03:56PM 35.4067 -95.1181 91° East 424 488 37,000  Level Memphis Center
03:57PM 35.4017 -94.9725 92° East 424 488 37,000  Level Memphis Center
03:58PM 35.3986 -94.8272 91° East 424 488 37,000  Level Memphis Center
03:59PM 35.3956 -94.6794 91° East 424 488 37,000  Level Memphis Center
04:00PM 35.3922 -94.5314 92° East 424 488 37,000  Level Memphis Center
04:01PM 35.3889 -94.3811 92° East 429 494 37,000  Level Memphis Center
04:02PM 35.3833 -94.2306 93° East 429 494 37,000  Level Memphis Center
04:03PM 35.3711 -94.0822 96° East 434 499 37,000  Level Memphis Center
04:04PM 35.3589 -93.9314 96° East 447 514 37,000  Level Memphis Center
04:05PM 35.3486 -93.7783 95° East 447 514 37,000  Level Memphis Center
04:06PM 35.3436 -93.6458 93° East 447 514 37,000  Level Memphis Center
04:07PM 35.3314 -93.4797 95° East 447 514 37,000  Level Memphis Center
04:08PM 35.3203 -93.3292 95° East 447 514 37,000  Level Memphis Center
04:09PM 35.3094 -93.1736 95° East 452 520 37,000  Level Memphis Center
04:10PM 35.2981 -93.0308 96° East 437 503 37,000  Level Memphis Center
04:11PM 35.2844 -92.8778 96° East 437 503 37,000 180 Level Memphis Center
04:12PM 35.2728 -92.7325 96° East 445 512 37,400 480 Climbing Memphis Center
04:13PM 35.2608 -92.5769 95° East 444 511 38,000 780 Climbing Memphis Center
04:14PM 35.2469 -92.4189 96° East 454 522 39,000 480 Climbing Memphis Center
04:15PM 35.2325 -92.2814 97° East 460 529 39,000  Level Memphis Center
04:16PM 35.2242 -92.1314 94° East 455 524 39,000  Level Memphis Center
04:17PM 35.2097 -91.9811 97° East 443 510 39,000  Level Memphis Center
04:18PM 35.1969 -91.8308 96° East 443 510 39,000  Level Memphis Center
04:19PM 35.1819 -91.6808 97° East 443 510 39,000  Level Memphis Center
04:20PM 35.1667 -91.5206 97° East 443 510 39,000  Level Memphis Center
04:21PM 35.1536 -91.3703 96° East 443 510 39,000  Level Memphis Center
04:22PM 35.1400 -91.2256 97° East 437 503 39,000  Level Memphis Center
04:23PM 35.1264 -91.0781 96° East 437 503 39,000  Level Memphis Center
04:24PM 35.1125 -90.9283 96° East 442 509 39,000  Level Memphis Center
04:25PM 35.0964 -90.7808 98° East 442 509 39,000  Level Memphis Center
04:26PM 35.0822 -90.6336 97° East 442 509 39,000  Level Memphis Center
04:27PM 35.0678 -90.4864 97° East 442 509 39,000  Level Memphis Center
04:28PM 35.0533 -90.3367 97° East 437 503 39,000  Level Memphis Center
04:29PM 35.0406 -90.2075 97° East 431 496 39,000  Level Memphis Center
04:30PM 35.0258 -90.0631 97° East 431 496 39,000  Level Memphis Center
04:31PM 35.0108 -89.9183 97° East 425 489 39,000  Level Memphis Center
04:32PM 34.9850 -89.7539 101° East 432 497 39,000  Level Memphis Center
04:33PM 34.9633 -89.5994 100° East 450 518 39,000  Level Memphis Center
04:34PM 34.9394 -89.4578 102° East 444 511 39,000  Level Memphis Center
04:35PM 34.9175 -89.3136 100° East 439 505 39,000  Level Memphis Center
04:36PM 34.8931 -89.1672 101° East 434 499 39,000  Level Memphis Center
04:37PM 34.8708 -89.0181 100° East 439 505 39,000  Level Memphis Center
04:38PM 34.8525 -88.8894 100° East 439 505 39,000  Level Memphis Center
04:39PM 34.8297 -88.7406 101° East 439 505 39,000  Level Memphis Center
04:40PM 34.8050 -88.5942 102° East 439 505 39,000  Level Memphis Center
04:41PM 34.7817 -88.4431 101° East 435 501 39,000  Level Memphis Center
04:42PM 34.7564 -88.2919 101° East 435 501 39,000 -360 Level Memphis Center
04:43PM 34.7331 -88.1508 101° East 445 512 38,300 -900 Descending Memphis Center
04:44PM 34.7094 -87.9925 100° East 455 524 37,300 -960 Descending Memphis Center
04:45PM 34.6856 -87.8492 101° East 442 509 36,400 -960 Descending Memphis Center
04:46PM 34.6681 -87.7058 98° East 432 497 35,400 -720 Descending Memphis Center
04:47PM 34.6400 -87.5653 104° East 426 490 35,000 -720 Descending Memphis Center
04:49PM 34.6056 -87.3497 101° East 434 499 33,600 -840 Descending Atlanta Center
04:50PM 34.5758 -87.2047 104° East 434 499 33,000 -300 Descending Atlanta Center
04:51PM 34.5483 -87.0600 103° East 434 499 33,000  Level Atlanta Center
04:52PM 34.5203 -86.9153 103° East 434 499 33,000  Level Atlanta Center
04:53PM 34.4922 -86.7708 103° East 434 499 33,000  Level Atlanta Center
04:54PM 34.4642 -86.6264 103° East 434 499 33,000  Level Atlanta Center
04:55PM 34.4358 -86.4794 103° East 434 499 33,000  Level Atlanta Center
04:56PM 34.4094 -86.3375 103° East 434 499 33,000 -300 Level Atlanta Center
04:57PM 34.3806 -86.1933 104° East 434 499 32,400 -1,500 Descending Atlanta Center
04:58PM 34.3517 -86.0517 104° East 434 499 30,100 -2,280 Descending Atlanta Center
04:59PM 34.3269 -85.9103 102° East 434 499 27,900 -2,100 Descending Atlanta Center
05:00PM 34.3014 -85.7964 105° East 426 490 25,900 -2,100 Descending Atlanta Center
05:01PM 34.2761 -85.6628 103° East 404 465 23,700 -2,220 Descending Atlanta Center
05:02PM 34.2486 -85.5314 104° East 392 451 21,500 -2,220 Descending Atlanta Center
05:03PM 34.2228 -85.4056 104° East 392 451 19,300 -2,100 Descending Atlanta Center
05:04PM 34.1969 -85.2919 105° East 367 422 17,400 -2,100 Descending Atlanta Center
05:05PM 34.1542 -85.1858 116° Southeast 349 402 15,200 -2,100 Descending Atlanta Center
05:06PM 34.1092 -85.0750 116° Southeast 337 388 13,300 -1,200 Descending Atlanta Center
05:07PM 34.0639 -84.9917 123° Southeast 318 366 12,800 -1,140 Descending Atlanta Center
05:08PM 34.0103 -84.9233 133° Southeast 287 330 11,100 -1,680 Descending Atlanta Center
05:09PM 33.9544 -84.8553 135° Southeast 282 325 9,500 -1,080 Descending Atlanta Center
05:10PM 33.8897 -84.8269 160° South 243 280 9,000 -1,080 Descending Atlanta Center
05:10PM 33.8500 -84.8167 168° South 252 290 7,900 -1,620 Descending Atlanta TRACON
05:11PM 33.7833 -84.8167 180° South 231 266 6,600 -960 Descending Atlanta TRACON
05:12PM 33.7167 -84.8167 180° South 217 250 6,000 -300 Descending Atlanta TRACON
05:13PM 33.6667 -84.8000 164° South 219 252 6,000 -180 Level Atlanta TRACON
05:14PM 33.6500 -84.7333 107° East 209 241 5,700 -660 Descending Atlanta TRACON
05:15PM 33.6500 -84.6667 90° East 210 242 4,700 -960 Descending Atlanta TRACON
05:16PM 33.6500 -84.6000 90° East 190 219 3,700 -1,020 Descending Atlanta TRACON
05:17PM 33.6500 -84.5333 90° East 178 205 2,700 -900 Descending Atlanta TRACON
05:18PM 33.6500 -84.4833 90° East 134 154 1,900 -780 Descending Atlanta TRACON
05:19PM 33.6500 -84.4500 90° East 128 147 1,200 -720 Descending Atlanta TRACON
05:21PM 33.6367 -84.4279 North  Level Estimated
05:28PM 33.6367 -84.4279 North  Level Estimated